createdAt,value
2022-10-11T00:01:49.675Z,31.53
2022-10-11T00:04:54.389Z,31.65
2022-10-11T00:07:56.974Z,31.55
2022-10-11T00:11:19.181Z,31.59
2022-10-11T00:14:41.741Z,31.77
2022-10-11T00:18:05.338Z,31.74
2022-10-11T00:24:47.637Z,31.79
2022-10-11T00:27:55.500Z,31.80
2022-10-11T00:31:18.289Z,31.99
2022-10-11T00:34:31.081Z,31.72
2022-10-11T00:40:55.939Z,31.75
2022-10-11T00:44:36.342Z,31.69
2022-10-11T00:47:44.747Z,31.75
2022-10-11T00:50:54.651Z,31.72
2022-10-11T00:54:14.643Z,32.04
2022-10-11T00:57:31.256Z,31.86
2022-10-11T01:00:37.122Z,31.77
2022-10-11T01:03:44.270Z,32.08
2022-10-11T01:06:51.048Z,32.06
2022-10-11T01:10:10.911Z,31.99
2022-10-11T01:13:31.921Z,31.78
2022-10-11T01:16:50.944Z,31.89
2022-10-11T01:24:45.308Z,31.88
2022-10-11T01:28:22.963Z,31.86
2022-10-11T01:31:41.748Z,31.99
2022-10-11T01:35:29.302Z,31.99
2022-10-11T01:40:04.919Z,32.12
2022-10-11T01:43:13.846Z,32.08
2022-10-11T01:49:38.827Z,31.91
2022-10-11T01:52:51.457Z,32.14
2022-10-11T01:56:40.331Z,32.21
2022-10-11T02:00:03.620Z,32.10
2022-10-11T02:04:44.379Z,32.23
2022-10-11T02:08:02.005Z,31.84
2022-10-11T02:11:27.857Z,32.12
2022-10-11T02:14:58.505Z,32.04
2022-10-11T02:18:13.726Z,32.03
2022-10-11T02:25:40.253Z,32.10
2022-10-11T02:29:27.940Z,31.95
2022-10-11T02:36:42.082Z,31.91
2022-10-11T02:40:18.062Z,32.11
2022-10-11T02:43:57.315Z,32.09
2022-10-11T02:47:07.958Z,32.09
2022-10-11T02:50:44.175Z,32.18
2022-10-11T02:53:46.945Z,31.88
2022-10-11T02:56:53.362Z,32.16
2022-10-11T03:00:12.545Z,32.09
2022-10-11T03:03:22.607Z,31.92
2022-10-11T03:06:40.971Z,31.84
2022-10-11T03:09:43.472Z,31.98
2022-10-11T03:16:19.602Z,32.10
2022-10-11T03:19:41.462Z,32.34
2022-10-11T03:22:54.413Z,32.26
2022-10-11T03:25:56.895Z,32.14
2022-10-11T03:29:06.052Z,32.11
2022-10-11T03:32:35.591Z,32.20
2022-10-11T03:35:40.795Z,32.28
2022-10-11T03:38:46.050Z,32.24
2022-10-11T03:41:48.920Z,32.10
2022-10-11T03:52:19.546Z,32.40
2022-10-11T03:55:29.521Z,32.43
2022-10-11T03:58:44.697Z,32.34
2022-10-11T04:05:46.022Z,32.23
2022-10-11T04:08:48.607Z,32.33
2022-10-11T04:11:51.195Z,32.26
2022-10-11T04:15:05.035Z,32.13
2022-10-11T04:18:36.661Z,32.42
2022-10-11T04:25:21.262Z,32.29
2022-10-11T04:28:26.274Z,32.31
2022-10-11T04:31:38.757Z,32.09
2022-10-11T04:34:42.655Z,32.40
2022-10-11T04:42:26.411Z,32.19
2022-10-11T04:49:02.722Z,32.37
2022-10-11T04:52:15.859Z,32.50
2022-10-11T05:00:21.590Z,32.31
2022-10-11T05:03:35.628Z,32.41
2022-10-11T05:06:50.308Z,32.52
2022-10-11T05:10:33.313Z,32.57
2022-10-11T05:14:12.409Z,32.64
2022-10-11T05:17:31.339Z,33.12
2022-10-11T06:44:34.596Z,33.10
2022-10-11T06:56:34.604Z,33.22
2022-10-11T07:07:36.414Z,32.86
2022-10-11T07:15:45.021Z,33.11
2022-10-11T09:32:06.065Z,37.16
2022-10-11T09:35:21.698Z,37.28
2022-10-11T09:39:25.236Z,37.33
2022-10-11T09:42:53.325Z,37.58
2022-10-11T09:46:37.144Z,37.51
2022-10-11T09:54:02.739Z,38.95
2022-10-11T10:01:41.852Z,38.93
2022-10-11T10:05:33.160Z,39.00
2022-10-11T10:09:41.204Z,39.05
2022-10-11T10:14:56.906Z,38.82
2022-10-11T10:21:41.568Z,39.64
2022-10-11T10:25:28.453Z,39.62
2022-10-11T10:28:47.106Z,40.27
2022-10-11T10:33:00.091Z,40.51
2022-10-11T10:40:49.638Z,40.17
2022-10-11T10:43:59.104Z,40.07
2022-10-11T10:47:01.546Z,40.08
2022-10-11T10:50:12.248Z,40.06
2022-10-11T10:53:29.413Z,40.06
2022-10-11T10:56:50.226Z,40.07
2022-10-11T11:00:19.863Z,39.94
2022-10-11T11:03:46.038Z,40.11
2022-10-11T11:07:17.911Z,40.58
2022-10-11T11:14:48.073Z,40.36
2022-10-11T11:18:06.628Z,40.45
2022-10-11T11:25:45.301Z,40.87
2022-10-11T11:29:10.896Z,39.46
2022-10-11T11:32:53.680Z,40.51
2022-10-11T11:36:03.092Z,40.01
2022-10-11T11:39:12.625Z,39.81
2022-10-11T11:42:37.381Z,39.74
2022-10-11T11:45:51.723Z,39.57
2022-10-11T11:48:56.997Z,39.57
2022-10-11T11:52:00.270Z,39.43
2022-10-11T11:59:29.291Z,39.65
2022-10-11T12:02:37.932Z,39.75
2022-10-11T12:07:04.199Z,39.98
2022-10-11T12:10:27.393Z,40.33
2022-10-11T12:13:50.748Z,39.82
2022-10-11T12:17:09.826Z,39.39
2022-10-11T12:20:23.959Z,40.02
2022-10-11T12:23:29.269Z,39.69
2022-10-11T12:26:41.566Z,39.54
2022-10-11T12:29:43.865Z,39.59
2022-10-11T12:33:15.552Z,39.38
2022-10-11T12:36:34.053Z,39.41
2022-10-11T12:39:49.232Z,39.54
2022-10-11T12:43:14.801Z,39.89
2022-10-11T12:46:39.501Z,39.55
2022-10-11T12:50:00.326Z,40.18
2022-10-11T12:58:15.646Z,39.99
2022-10-11T13:01:54.536Z,39.90
2022-10-11T13:05:15.340Z,39.38
2022-10-11T13:08:31.329Z,39.19
2022-10-11T13:11:45.234Z,41.47
2022-10-11T13:14:59.715Z,40.58
2022-10-11T13:18:17.710Z,42.10
2022-10-11T13:21:36.343Z,41.23
2022-10-11T13:24:40.627Z,40.95
2022-10-11T13:27:43.579Z,40.11
2022-10-11T13:30:55.821Z,41.39
2022-10-11T13:33:59.238Z,42.92
2022-10-11T13:40:21.183Z,42.33
2022-10-11T13:43:28.267Z,41.85
2022-10-11T13:46:31.467Z,41.37
2022-10-11T13:49:40.392Z,41.05
2022-10-11T13:53:10.087Z,41.14
2022-10-11T13:56:18.803Z,40.66
2022-10-11T14:04:50.154Z,41.44
2022-10-11T14:07:58.587Z,45.51
2022-10-11T14:11:06.102Z,47.47
2022-10-11T14:14:33.818Z,46.57
2022-10-11T14:17:54.122Z,46.20
2022-10-11T14:20:56.450Z,46.00
2022-10-11T14:24:06.257Z,45.42
2022-10-11T14:27:29.623Z,44.94
2022-10-11T14:30:31.960Z,44.65
2022-10-11T14:33:35.088Z,44.11
2022-10-11T14:36:37.293Z,44.26
2022-10-11T14:39:39.594Z,43.79
2022-10-11T14:42:44.815Z,43.45
2022-10-11T14:45:47.156Z,43.60
2022-10-11T14:48:55.641Z,43.36
2022-10-11T14:51:59.215Z,43.23
2022-10-11T14:55:02.170Z,43.07
2022-10-11T14:58:06.312Z,42.80
2022-10-11T15:01:16.264Z,42.82
2022-10-11T15:04:22.662Z,42.83
2022-10-11T15:07:24.887Z,42.49
2022-10-11T15:10:49.488Z,42.23
2022-10-11T15:13:51.777Z,42.08
2022-10-11T15:16:54.875Z,42.23
2022-10-11T15:19:57.183Z,42.28
2022-10-11T15:23:00.259Z,42.19
2022-10-11T15:26:02.813Z,42.24
2022-10-11T15:29:06.672Z,41.97
2022-10-11T15:32:09.119Z,41.71
2022-10-11T15:35:11.921Z,41.82
2022-10-11T15:38:23.926Z,41.83
2022-10-11T15:41:26.258Z,41.57
2022-10-11T15:44:28.585Z,41.91
2022-10-11T15:47:30.867Z,41.62
2022-10-11T15:50:37.470Z,41.66
2022-10-11T15:53:39.950Z,41.61
2022-10-11T15:56:42.862Z,41.34
2022-10-11T15:59:45.043Z,41.37
2022-10-11T16:02:47.244Z,41.57
2022-10-11T16:05:50.190Z,41.41
2022-10-11T16:08:52.526Z,41.36
2022-10-11T16:11:54.863Z,41.45
2022-10-11T16:14:57.209Z,41.25
2022-10-11T16:17:59.449Z,41.49
2022-10-11T16:21:01.655Z,41.18
2022-10-11T16:24:04.813Z,41.37
2022-10-11T16:27:07.095Z,41.18
2022-10-11T16:30:11.900Z,41.11
2022-10-11T16:33:14.313Z,41.19
2022-10-11T16:36:32.801Z,41.15
2022-10-11T16:39:35.306Z,41.23
2022-10-11T16:42:40.650Z,41.04
2022-10-11T16:45:42.854Z,41.02
2022-10-11T16:48:45.270Z,40.99
2022-10-11T16:51:48.268Z,41.15
2022-10-11T16:54:50.646Z,41.16
2022-10-11T16:57:52.937Z,40.97
2022-10-11T17:00:55.216Z,40.86
2022-10-11T17:03:58.181Z,40.89
2022-10-11T17:07:00.559Z,40.78
2022-10-11T17:10:02.823Z,41.00
2022-10-11T17:13:08.297Z,40.93
2022-10-11T17:16:10.589Z,41.03
2022-10-11T17:19:14.429Z,40.65
2022-10-11T17:22:19.501Z,41.11
2022-10-11T17:25:21.765Z,40.77
2022-10-11T17:28:24.217Z,40.65
2022-10-11T17:31:28.192Z,40.94
2022-10-11T17:34:30.745Z,40.77
2022-10-11T17:37:34.203Z,40.63
2022-10-11T17:40:36.458Z,40.72
2022-10-11T17:43:39.194Z,40.80
2022-10-11T17:46:41.378Z,40.69
2022-10-11T17:49:43.596Z,40.89
2022-10-11T17:52:45.929Z,40.64
2022-10-11T17:55:51.534Z,40.65
2022-10-11T17:58:55.928Z,40.81
2022-10-11T18:01:58.734Z,40.63
2022-10-11T18:05:01.018Z,40.78
2022-10-11T18:08:03.252Z,40.62
2022-10-11T18:11:10.082Z,40.74
2022-10-11T18:14:12.480Z,40.82
2022-10-11T18:17:14.747Z,40.75
2022-10-11T18:20:17.036Z,40.81
2022-10-11T18:23:19.692Z,40.63
2022-10-11T18:26:29.411Z,40.80
2022-10-11T18:29:32.768Z,41.02
2022-10-11T18:32:35.447Z,40.60
2022-10-11T18:35:38.158Z,40.84
2022-10-11T18:38:46.567Z,40.75
2022-10-11T18:41:48.998Z,40.80
2022-10-11T18:44:51.225Z,40.67
2022-10-11T18:47:53.503Z,40.54
2022-10-11T18:51:06.359Z,40.60
2022-10-11T18:54:13.896Z,40.70
2022-10-11T18:57:19.177Z,40.71
2022-10-11T19:00:40.266Z,40.76
2022-10-11T19:03:44.765Z,40.45
2022-10-11T19:06:48.262Z,40.70
2022-10-11T19:09:50.563Z,40.50
2022-10-11T19:12:52.764Z,40.69
2022-10-11T19:15:55.013Z,40.62
2022-10-11T19:18:57.982Z,40.85
2022-10-11T19:22:00.783Z,40.77
2022-10-11T19:25:03.070Z,40.90
2022-10-11T19:28:05.393Z,40.41
2022-10-11T19:31:10.212Z,40.72
2022-10-11T19:34:12.599Z,40.65
2022-10-11T19:37:16.006Z,40.65
2022-10-11T19:40:18.235Z,40.67
2022-10-11T19:43:20.436Z,40.58
2022-10-11T19:46:44.572Z,40.59
2022-10-11T19:49:44.911Z,40.59
2022-10-11T19:52:47.164Z,40.40
2022-10-11T19:55:49.416Z,40.79
2022-10-11T19:58:52.109Z,40.43
2022-10-11T20:01:54.368Z,40.61
2022-10-11T20:04:56.617Z,40.72
2022-10-11T20:07:58.806Z,40.33
2022-10-11T20:11:07.720Z,40.65
2022-10-11T20:14:09.940Z,40.35
2022-10-11T20:17:12.593Z,40.26
2022-10-11T20:20:16.882Z,40.64
2022-10-11T20:23:23.669Z,40.34
2022-10-11T20:26:30.387Z,40.41
2022-10-11T20:29:32.861Z,40.40
2022-10-11T20:32:35.121Z,40.37
2022-10-11T20:35:37.365Z,40.29
2022-10-11T20:38:41.574Z,40.37
2022-10-11T20:41:43.929Z,40.60
2022-10-11T20:45:11.669Z,40.76
2022-10-11T20:48:14.015Z,40.64
2022-10-11T20:51:16.850Z,40.30
2022-10-11T20:54:19.205Z,40.69
2022-10-11T20:57:21.452Z,40.53
2022-10-11T21:00:23.822Z,40.36
2022-10-11T21:03:26.220Z,40.40
2022-10-11T21:06:30.235Z,40.55
2022-10-11T21:09:32.484Z,40.49
2022-10-11T21:12:35.237Z,40.26
2022-10-11T21:15:37.928Z,40.46
2022-10-11T21:18:40.673Z,40.37
2022-10-11T21:21:43.472Z,40.44
2022-10-11T21:24:45.696Z,40.46
2022-10-11T21:27:47.942Z,40.60
2022-10-11T21:30:50.178Z,40.56
2022-10-11T21:33:52.452Z,40.53
2022-10-11T21:36:54.679Z,40.65
2022-10-11T21:39:56.892Z,40.39
2022-10-11T21:42:59.164Z,40.26
2022-10-11T21:46:09.672Z,40.58
2022-10-11T21:49:13.079Z,40.28
2022-10-11T21:52:15.366Z,40.37
2022-10-11T21:55:17.585Z,40.46
2022-10-11T21:58:19.800Z,40.23
2022-10-11T22:01:22.182Z,40.29
2022-10-11T22:04:24.495Z,40.02
2022-10-11T22:07:26.745Z,40.37
2022-10-11T22:10:29.061Z,40.32
2022-10-11T22:13:33.442Z,40.43
2022-10-11T22:16:35.801Z,40.34
2022-10-11T22:19:38.076Z,40.54
2022-10-11T22:22:40.248Z,40.07
2022-10-11T22:25:42.474Z,40.44
2022-10-11T22:28:46.540Z,40.31
2022-10-11T22:31:48.949Z,40.31
2022-10-11T22:34:51.193Z,40.49
2022-10-11T22:37:53.441Z,40.40
2022-10-11T22:40:58.251Z,40.39
2022-10-11T22:44:00.622Z,40.18
2022-10-11T22:47:02.849Z,40.35
2022-10-11T22:50:05.691Z,40.23
2022-10-11T22:53:09.071Z,39.94
2022-10-11T22:56:11.654Z,40.31
2022-10-11T22:59:13.898Z,40.28
2022-10-11T23:02:16.199Z,40.45
2022-10-11T23:05:18.742Z,40.19
2022-10-11T23:08:21.038Z,40.40
2022-10-11T23:11:23.255Z,39.99
2022-10-11T23:14:25.566Z,40.30
2022-10-11T23:17:27.886Z,40.09
2022-10-11T23:20:30.084Z,40.07
2022-10-11T23:23:32.938Z,40.13
2022-10-11T23:26:35.133Z,39.94
2022-10-11T23:29:41.045Z,40.36
2022-10-11T23:32:43.271Z,40.19
2022-10-11T23:35:45.477Z,40.17
2022-10-11T23:38:53.315Z,40.28
2022-10-11T23:41:55.592Z,40.27
2022-10-11T23:44:57.803Z,39.98
2022-10-11T23:48:00.005Z,40.00
2022-10-11T23:51:02.276Z,40.28
2022-10-11T23:54:04.632Z,40.28
2022-10-11T23:57:06.974Z,40.07
